sensor_id;sensor_type;location;lat;lon;timestamp;P1;durP1;ratioP1;P2;durP2;ratioP2
21806;SDS011;11065;50.786;7.840;2023-07-22T00:01:51;4.70;;;3.13;;
21806;SDS011;11065;50.786;7.840;2023-07-22T00:04:20;4.63;;;3.33;;
21806;SDS011;11065;50.786;7.840;2023-07-22T00:06:48;5.77;;;3.37;;
21806;SDS011;11065;50.786;7.840;2023-07-22T00:09:17;6.77;;;3.57;;
21806;SDS011;11065;50.786;7.840;2023-07-22T00:11:47;5.27;;;3.00;;
21806;SDS011;11065;50.786;7.840;2023-07-22T00:14:17;7.70;;;4.30;;
21806;SDS011;11065;50.786;7.840;2023-07-22T00:16:45;5.87;;;3.73;;
21806;SDS011;11065;50.786;7.840;2023-07-22T00:19:14;6.70;;;4.73;;
21806;SDS011;11065;50.786;7.840;2023-07-22T00:21:47;8.03;;;4.43;;
21806;SDS011;11065;50.786;7.840;2023-07-22T00:24:15;8.47;;;4.50;;
21806;SDS011;11065;50.786;7.840;2023-07-22T00:26:44;6.43;;;4.47;;
21806;SDS011;11065;50.786;7.840;2023-07-22T00:29:13;5.73;;;3.67;;
21806;SDS011;11065;50.786;7.840;2023-07-22T00:31:42;6.73;;;3.50;;
21806;SDS011;11065;50.786;7.840;2023-07-22T00:34:10;5.90;;;3.97;;
21806;SDS011;11065;50.786;7.840;2023-07-22T00:36:38;7.20;;;4.20;;
21806;SDS011;11065;50.786;7.840;2023-07-22T00:39:06;9.00;;;4.33;;
21806;SDS011;11065;50.786;7.840;2023-07-22T00:41:35;8.23;;;5.13;;
21806;SDS011;11065;50.786;7.840;2023-07-22T00:44:04;8.70;;;5.40;;
21806;SDS011;11065;50.786;7.840;2023-07-22T00:46:34;8.63;;;5.27;;
21806;SDS011;11065;50.786;7.840;2023-07-22T00:49:02;8.93;;;5.17;;
21806;SDS011;11065;50.786;7.840;2023-07-22T00:51:33;7.40;;;5.00;;
21806;SDS011;11065;50.786;7.840;2023-07-22T00:54:01;11.27;;;5.43;;
21806;SDS011;11065;50.786;7.840;2023-07-22T00:56:31;10.10;;;5.13;;
21806;SDS011;11065;50.786;7.840;2023-07-22T00:59:03;11.37;;;5.13;;
21806;SDS011;11065;50.786;7.840;2023-07-22T01:01:33;13.53;;;5.80;;
21806;SDS011;11065;50.786;7.840;2023-07-22T01:04:02;9.43;;;5.77;;
21806;SDS011;11065;50.786;7.840;2023-07-22T01:06:31;7.17;;;4.80;;
21806;SDS011;11065;50.786;7.840;2023-07-22T01:09:00;8.60;;;4.53;;
21806;SDS011;11065;50.786;7.840;2023-07-22T01:11:28;8.70;;;4.80;;
21806;SDS011;11065;50.786;7.840;2023-07-22T01:13:57;10.53;;;4.90;;
21806;SDS011;11065;50.786;7.840;2023-07-22T01:16:26;7.83;;;4.23;;
21806;SDS011;11065;50.786;7.840;2023-07-22T01:18:57;6.03;;;4.07;;
21806;SDS011;11065;50.786;7.840;2023-07-22T01:21:25;10.47;;;4.27;;
21806;SDS011;11065;50.786;7.840;2023-07-22T01:23:58;6.23;;;4.10;;
21806;SDS011;11065;50.786;7.840;2023-07-22T01:26:27;6.80;;;4.87;;
21806;SDS011;11065;50.786;7.840;2023-07-22T01:29:01;7.10;;;4.63;;
21806;SDS011;11065;50.786;7.840;2023-07-22T01:31:33;6.40;;;4.10;;
21806;SDS011;11065;50.786;7.840;2023-07-22T01:34:02;6.93;;;4.23;;
21806;SDS011;11065;50.786;7.840;2023-07-22T01:36:31;7.10;;;4.77;;
21806;SDS011;11065;50.786;7.840;2023-07-22T01:39:01;6.13;;;4.03;;
21806;SDS011;11065;50.786;7.840;2023-07-22T01:41:32;7.97;;;4.47;;
21806;SDS011;11065;50.786;7.840;2023-07-22T01:44:00;7.30;;;4.07;;
21806;SDS011;11065;50.786;7.840;2023-07-22T01:46:28;5.30;;;4.43;;
21806;SDS011;11065;50.786;7.840;2023-07-22T01:48:57;4.73;;;3.87;;
21806;SDS011;11065;50.786;7.840;2023-07-22T01:51:25;4.93;;;3.60;;
21806;SDS011;11065;50.786;7.840;2023-07-22T01:53:53;5.80;;;3.70;;
21806;SDS011;11065;50.786;7.840;2023-07-22T01:56:24;5.03;;;3.43;;
21806;SDS011;11065;50.786;7.840;2023-07-22T01:58:53;6.07;;;3.47;;
21806;SDS011;11065;50.786;7.840;2023-07-22T02:01:21;5.33;;;3.50;;
21806;SDS011;11065;50.786;7.840;2023-07-22T02:03:50;5.50;;;3.87;;
21806;SDS011;11065;50.786;7.840;2023-07-22T02:06:19;5.70;;;4.17;;
21806;SDS011;11065;50.786;7.840;2023-07-22T02:08:48;7.63;;;3.97;;
21806;SDS011;11065;50.786;7.840;2023-07-22T02:11:17;13.50;;;4.73;;
21806;SDS011;11065;50.786;7.840;2023-07-22T02:13:46;5.80;;;4.07;;
21806;SDS011;11065;50.786;7.840;2023-07-22T02:16:15;25.50;;;4.50;;
21806;SDS011;11065;50.786;7.840;2023-07-22T02:18:45;8.20;;;4.23;;
21806;SDS011;11065;50.786;7.840;2023-07-22T02:21:14;6.83;;;4.17;;
21806;SDS011;11065;50.786;7.840;2023-07-22T02:23:42;5.33;;;3.87;;
21806;SDS011;11065;50.786;7.840;2023-07-22T02:26:10;4.60;;;3.47;;
21806;SDS011;11065;50.786;7.840;2023-07-22T02:28:38;5.73;;;3.53;;
21806;SDS011;11065;50.786;7.840;2023-07-22T02:31:08;5.70;;;4.20;;
21806;SDS011;11065;50.786;7.840;2023-07-22T02:33:37;6.60;;;3.63;;
21806;SDS011;11065;50.786;7.840;2023-07-22T02:36:06;6.17;;;4.50;;
21806;SDS011;11065;50.786;7.840;2023-07-22T02:38:34;5.97;;;4.30;;
21806;SDS011;11065;50.786;7.840;2023-07-22T02:41:04;5.23;;;4.23;;
21806;SDS011;11065;50.786;7.840;2023-07-22T02:43:34;6.40;;;3.73;;
21806;SDS011;11065;50.786;7.840;2023-07-22T02:46:03;7.27;;;4.10;;
21806;SDS011;11065;50.786;7.840;2023-07-22T02:48:36;5.30;;;3.73;;
21806;SDS011;11065;50.786;7.840;2023-07-22T02:51:05;5.03;;;3.80;;
21806;SDS011;11065;50.786;7.840;2023-07-22T02:53:35;5.80;;;4.07;;
21806;SDS011;11065;50.786;7.840;2023-07-22T02:56:04;5.77;;;3.97;;
21806;SDS011;11065;50.786;7.840;2023-07-22T02:58:34;4.87;;;3.50;;
21806;SDS011;11065;50.786;7.840;2023-07-22T03:01:05;5.50;;;3.67;;
21806;SDS011;11065;50.786;7.840;2023-07-22T03:03:36;5.00;;;3.80;;
21806;SDS011;11065;50.786;7.840;2023-07-22T03:06:06;5.90;;;4.00;;
21806;SDS011;11065;50.786;7.840;2023-07-22T03:08:36;6.20;;;4.40;;
21806;SDS011;11065;50.786;7.840;2023-07-22T03:11:04;6.20;;;4.20;;
21806;SDS011;11065;50.786;7.840;2023-07-22T03:13:33;6.53;;;4.33;;
21806;SDS011;11065;50.786;7.840;2023-07-22T03:16:02;7.17;;;4.10;;
21806;SDS011;11065;50.786;7.840;2023-07-22T03:18:31;7.03;;;4.20;;
21806;SDS011;11065;50.786;7.840;2023-07-22T03:21:01;7.07;;;4.63;;
21806;SDS011;11065;50.786;7.840;2023-07-22T03:23:29;5.67;;;4.33;;
21806;SDS011;11065;50.786;7.840;2023-07-22T03:25:57;5.97;;;3.93;;
21806;SDS011;11065;50.786;7.840;2023-07-22T03:28:26;4.97;;;3.77;;
21806;SDS011;11065;50.786;7.840;2023-07-22T03:30:54;5.17;;;3.70;;
21806;SDS011;11065;50.786;7.840;2023-07-22T03:33:23;8.37;;;3.80;;
21806;SDS011;11065;50.786;7.840;2023-07-22T03:35:51;6.83;;;3.90;;
21806;SDS011;11065;50.786;7.840;2023-07-22T03:38:21;6.43;;;3.97;;
21806;SDS011;11065;50.786;7.840;2023-07-22T03:40:50;5.30;;;3.53;;
21806;SDS011;11065;50.786;7.840;2023-07-22T03:43:19;5.70;;;4.07;;
21806;SDS011;11065;50.786;7.840;2023-07-22T03:45:48;6.20;;;3.37;;
21806;SDS011;11065;50.786;7.840;2023-07-22T03:48:16;5.20;;;3.50;;
21806;SDS011;11065;50.786;7.840;2023-07-22T03:50:44;4.57;;;3.37;;
21806;SDS011;11065;50.786;7.840;2023-07-22T03:53:12;6.67;;;3.70;;
21806;SDS011;11065;50.786;7.840;2023-07-22T03:55:42;5.37;;;3.87;;
21806;SDS011;11065;50.786;7.840;2023-07-22T03:58:10;6.47;;;4.73;;
21806;SDS011;11065;50.786;7.840;2023-07-22T04:00:38;5.77;;;4.07;;
21806;SDS011;11065;50.786;7.840;2023-07-22T04:03:06;8.03;;;4.17;;
21806;SDS011;11065;50.786;7.840;2023-07-22T04:05:35;8.00;;;4.73;;
21806;SDS011;11065;50.786;7.840;2023-07-22T04:08:03;8.23;;;4.27;;
21806;SDS011;11065;50.786;7.840;2023-07-22T04:10:33;6.30;;;3.90;;
21806;SDS011;11065;50.786;7.840;2023-07-22T04:13:03;7.83;;;4.07;;
21806;SDS011;11065;50.786;7.840;2023-07-22T04:15:31;5.13;;;3.63;;
21806;SDS011;11065;50.786;7.840;2023-07-22T04:17:59;4.67;;;3.57;;
21806;SDS011;11065;50.786;7.840;2023-07-22T04:20:28;4.27;;;3.30;;
21806;SDS011;11065;50.786;7.840;2023-07-22T04:22:57;5.13;;;3.70;;
21806;SDS011;11065;50.786;7.840;2023-07-22T04:25:27;4.53;;;3.00;;
21806;SDS011;11065;50.786;7.840;2023-07-22T04:27:56;4.43;;;2.93;;
21806;SDS011;11065;50.786;7.840;2023-07-22T04:30:26;4.27;;;3.23;;
21806;SDS011;11065;50.786;7.840;2023-07-22T04:32:54;5.30;;;3.47;;
21806;SDS011;11065;50.786;7.840;2023-07-22T04:35:24;5.80;;;3.47;;
21806;SDS011;11065;50.786;7.840;2023-07-22T04:37:53;5.13;;;3.20;;
21806;SDS011;11065;50.786;7.840;2023-07-22T04:40:21;4.37;;;2.93;;
21806;SDS011;11065;50.786;7.840;2023-07-22T04:42:51;6.07;;;3.80;;
21806;SDS011;11065;50.786;7.840;2023-07-22T04:45:20;5.40;;;3.53;;
21806;SDS011;11065;50.786;7.840;2023-07-22T04:47:52;4.53;;;3.30;;
21806;SDS011;11065;50.786;7.840;2023-07-22T04:50:20;7.80;;;3.17;;
21806;SDS011;11065;50.786;7.840;2023-07-22T04:52:48;4.20;;;2.73;;
21806;SDS011;11065;50.786;7.840;2023-07-22T04:55:17;5.03;;;2.90;;
21806;SDS011;11065;50.786;7.840;2023-07-22T04:57:45;26.87;;;4.27;;
21806;SDS011;11065;50.786;7.840;2023-07-22T05:00:14;6.67;;;2.87;;
21806;SDS011;11065;50.786;7.840;2023-07-22T05:02:42;8.50;;;3.07;;
21806;SDS011;11065;50.786;7.840;2023-07-22T05:05:13;17.93;;;3.40;;
21806;SDS011;11065;50.786;7.840;2023-07-22T05:07:42;4.63;;;3.23;;
21806;SDS011;11065;50.786;7.840;2023-07-22T05:10:11;4.43;;;2.90;;
21806;SDS011;11065;50.786;7.840;2023-07-22T05:12:41;5.77;;;3.43;;
21806;SDS011;11065;50.786;7.840;2023-07-22T05:15:10;4.90;;;3.17;;
21806;SDS011;11065;50.786;7.840;2023-07-22T05:17:39;8.20;;;3.40;;
21806;SDS011;11065;50.786;7.840;2023-07-22T05:20:08;4.07;;;2.90;;
21806;SDS011;11065;50.786;7.840;2023-07-22T05:22:39;5.50;;;3.60;;
21806;SDS011;11065;50.786;7.840;2023-07-22T05:25:08;5.10;;;3.57;;
21806;SDS011;11065;50.786;7.840;2023-07-22T05:27:37;4.73;;;3.67;;
21806;SDS011;11065;50.786;7.840;2023-07-22T05:30:07;5.37;;;3.83;;
21806;SDS011;11065;50.786;7.840;2023-07-22T05:32:54;4.97;;;3.57;;
21806;SDS011;11065;50.786;7.840;2023-07-22T05:35:23;4.93;;;3.47;;
21806;SDS011;11065;50.786;7.840;2023-07-22T05:37:52;5.30;;;3.50;;
21806;SDS011;11065;50.786;7.840;2023-07-22T05:40:21;7.43;;;4.10;;
21806;SDS011;11065;50.786;7.840;2023-07-22T05:42:49;5.63;;;4.30;;
21806;SDS011;11065;50.786;7.840;2023-07-22T05:45:17;5.50;;;4.00;;
21806;SDS011;11065;50.786;7.840;2023-07-22T05:47:46;5.87;;;3.70;;
21806;SDS011;11065;50.786;7.840;2023-07-22T05:50:15;5.50;;;3.70;;
21806;SDS011;11065;50.786;7.840;2023-07-22T05:52:44;5.50;;;4.40;;
21806;SDS011;11065;50.786;7.840;2023-07-22T05:55:14;6.40;;;4.00;;
21806;SDS011;11065;50.786;7.840;2023-07-22T05:57:43;4.97;;;3.97;;
21806;SDS011;11065;50.786;7.840;2023-07-22T06:00:12;5.40;;;3.80;;
21806;SDS011;11065;50.786;7.840;2023-07-22T06:02:41;6.53;;;3.87;;
21806;SDS011;11065;50.786;7.840;2023-07-22T06:05:09;5.83;;;4.37;;
21806;SDS011;11065;50.786;7.840;2023-07-22T06:07:38;6.13;;;4.23;;
21806;SDS011;11065;50.786;7.840;2023-07-22T06:10:06;6.20;;;4.17;;
21806;SDS011;11065;50.786;7.840;2023-07-22T06:12:37;5.10;;;4.13;;
21806;SDS011;11065;50.786;7.840;2023-07-22T06:15:07;4.87;;;3.97;;
21806;SDS011;11065;50.786;7.840;2023-07-22T06:17:35;6.57;;;4.20;;
21806;SDS011;11065;50.786;7.840;2023-07-22T06:20:04;5.23;;;3.90;;
21806;SDS011;11065;50.786;7.840;2023-07-22T06:22:34;5.70;;;4.10;;
21806;SDS011;11065;50.786;7.840;2023-07-22T06:25:03;6.10;;;4.47;;
21806;SDS011;11065;50.786;7.840;2023-07-22T06:27:32;5.37;;;4.23;;
21806;SDS011;11065;50.786;7.840;2023-07-22T06:30:02;5.40;;;3.93;;
21806;SDS011;11065;50.786;7.840;2023-07-22T06:32:31;5.57;;;4.17;;
21806;SDS011;11065;50.786;7.840;2023-07-22T06:34:59;5.07;;;3.87;;
21806;SDS011;11065;50.786;7.840;2023-07-22T06:37:27;5.90;;;3.87;;
21806;SDS011;11065;50.786;7.840;2023-07-22T06:39:56;5.43;;;4.00;;
21806;SDS011;11065;50.786;7.840;2023-07-22T06:42:24;4.80;;;3.70;;
21806;SDS011;11065;50.786;7.840;2023-07-22T06:44:55;5.67;;;3.87;;
21806;SDS011;11065;50.786;7.840;2023-07-22T06:47:25;5.33;;;3.93;;
21806;SDS011;11065;50.786;7.840;2023-07-22T06:49:53;5.60;;;3.87;;
21806;SDS011;11065;50.786;7.840;2023-07-22T06:52:22;5.50;;;3.70;;
21806;SDS011;11065;50.786;7.840;2023-07-22T06:54:50;5.27;;;3.70;;
21806;SDS011;11065;50.786;7.840;2023-07-22T06:57:18;4.77;;;3.57;;
21806;SDS011;11065;50.786;7.840;2023-07-22T06:59:48;4.93;;;4.00;;
21806;SDS011;11065;50.786;7.840;2023-07-22T07:02:17;7.60;;;3.83;;
21806;SDS011;11065;50.786;7.840;2023-07-22T07:04:46;6.17;;;4.53;;
21806;SDS011;11065;50.786;7.840;2023-07-22T07:07:15;4.90;;;3.50;;
21806;SDS011;11065;50.786;7.840;2023-07-22T07:09:44;6.40;;;4.63;;
21806;SDS011;11065;50.786;7.840;2023-07-22T07:12:12;6.30;;;4.50;;
21806;SDS011;11065;50.786;7.840;2023-07-22T07:14:40;5.13;;;3.73;;
21806;SDS011;11065;50.786;7.840;2023-07-22T07:17:09;5.43;;;4.07;;
21806;SDS011;11065;50.786;7.840;2023-07-22T07:19:37;5.20;;;4.07;;
21806;SDS011;11065;50.786;7.840;2023-07-22T07:22:07;5.30;;;3.73;;
21806;SDS011;11065;50.786;7.840;2023-07-22T07:24:35;5.80;;;4.07;;
21806;SDS011;11065;50.786;7.840;2023-07-22T07:27:04;5.40;;;3.90;;
21806;SDS011;11065;50.786;7.840;2023-07-22T07:29:33;5.57;;;4.13;;
21806;SDS011;11065;50.786;7.840;2023-07-22T07:32:19;5.27;;;4.07;;
21806;SDS011;11065;50.786;7.840;2023-07-22T07:34:50;6.13;;;4.13;;
21806;SDS011;11065;50.786;7.840;2023-07-22T07:37:20;5.83;;;4.27;;
21806;SDS011;11065;50.786;7.840;2023-07-22T07:39:50;5.30;;;3.93;;
21806;SDS011;11065;50.786;7.840;2023-07-22T07:42:19;4.67;;;3.73;;
21806;SDS011;11065;50.786;7.840;2023-07-22T07:44:47;6.00;;;4.37;;
21806;SDS011;11065;50.786;7.840;2023-07-22T07:47:15;5.50;;;4.20;;
21806;SDS011;11065;50.786;7.840;2023-07-22T07:49:43;5.57;;;4.03;;
21806;SDS011;11065;50.786;7.840;2023-07-22T07:52:12;7.40;;;3.40;;
21806;SDS011;11065;50.786;7.840;2023-07-22T07:54:42;5.83;;;3.83;;
21806;SDS011;11065;50.786;7.840;2023-07-22T07:57:10;5.07;;;3.87;;
21806;SDS011;11065;50.786;7.840;2023-07-22T07:59:39;7.60;;;4.03;;
21806;SDS011;11065;50.786;7.840;2023-07-22T08:02:08;5.00;;;3.47;;
21806;SDS011;11065;50.786;7.840;2023-07-22T08:04:37;7.23;;;4.07;;
21806;SDS011;11065;50.786;7.840;2023-07-22T08:07:06;5.10;;;3.60;;
21806;SDS011;11065;50.786;7.840;2023-07-22T08:09:35;5.37;;;3.87;;
21806;SDS011;11065;50.786;7.840;2023-07-22T08:12:05;5.40;;;4.03;;
21806;SDS011;11065;50.786;7.840;2023-07-22T08:14:34;4.80;;;3.57;;
21806;SDS011;11065;50.786;7.840;2023-07-22T08:17:03;5.67;;;3.43;;
21806;SDS011;11065;50.786;7.840;2023-07-22T08:19:32;6.47;;;3.47;;
21806;SDS011;11065;50.786;7.840;2023-07-22T08:22:00;5.43;;;3.90;;
21806;SDS011;11065;50.786;7.840;2023-07-22T08:24:28;5.37;;;3.73;;
21806;SDS011;11065;50.786;7.840;2023-07-22T08:26:57;6.00;;;3.87;;
21806;SDS011;11065;50.786;7.840;2023-07-22T08:29:27;5.97;;;3.80;;
21806;SDS011;11065;50.786;7.840;2023-07-22T08:31:56;7.13;;;4.07;;
21806;SDS011;11065;50.786;7.840;2023-07-22T08:34:24;6.13;;;4.43;;
21806;SDS011;11065;50.786;7.840;2023-07-22T08:36:52;5.90;;;3.87;;
21806;SDS011;11065;50.786;7.840;2023-07-22T08:39:21;8.30;;;5.73;;
21806;SDS011;11065;50.786;7.840;2023-07-22T08:41:49;5.97;;;5.00;;
21806;SDS011;11065;50.786;7.840;2023-07-22T08:44:19;6.23;;;4.93;;
21806;SDS011;11065;50.786;7.840;2023-07-22T08:46:52;6.23;;;5.10;;
21806;SDS011;11065;50.786;7.840;2023-07-22T08:49:24;6.63;;;4.60;;
21806;SDS011;11065;50.786;7.840;2023-07-22T08:51:54;6.70;;;5.27;;
21806;SDS011;11065;50.786;7.840;2023-07-22T08:54:23;6.60;;;4.97;;
21806;SDS011;11065;50.786;7.840;2023-07-22T08:56:52;6.00;;;4.77;;
21806;SDS011;11065;50.786;7.840;2023-07-22T08:59:21;6.47;;;5.23;;
21806;SDS011;11065;50.786;7.840;2023-07-22T09:01:53;5.60;;;4.73;;
21806;SDS011;11065;50.786;7.840;2023-07-22T09:04:22;7.03;;;4.87;;
21806;SDS011;11065;50.786;7.840;2023-07-22T09:06:50;7.30;;;4.90;;
21806;SDS011;11065;50.786;7.840;2023-07-22T09:09:20;6.33;;;4.80;;
21806;SDS011;11065;50.786;7.840;2023-07-22T09:11:49;5.73;;;4.27;;
21806;SDS011;11065;50.786;7.840;2023-07-22T09:14:19;6.93;;;4.60;;
21806;SDS011;11065;50.786;7.840;2023-07-22T09:17:04;6.68;;;4.70;;
21806;SDS011;11065;50.786;7.840;2023-07-22T09:19:32;5.60;;;4.50;;
21806;SDS011;11065;50.786;7.840;2023-07-22T09:22:01;5.78;;;4.97;;
21806;SDS011;11065;50.786;7.840;2023-07-22T09:24:29;6.10;;;4.47;;
21806;SDS011;11065;50.786;7.840;2023-07-22T09:26:58;4.80;;;4.07;;
21806;SDS011;11065;50.786;7.840;2023-07-22T09:29:33;5.70;;;4.20;;
21806;SDS011;11065;50.786;7.840;2023-07-22T09:32:04;5.47;;;4.05;;
21806;SDS011;11065;50.786;7.840;2023-07-22T09:34:33;5.47;;;4.05;;
21806;SDS011;11065;50.786;7.840;2023-07-22T09:37:02;5.20;;;4.28;;
21806;SDS011;11065;50.786;7.840;2023-07-22T09:39:32;4.50;;;3.90;;
21806;SDS011;11065;50.786;7.840;2023-07-22T09:42:02;4.95;;;3.97;;
21806;SDS011;11065;50.786;7.840;2023-07-22T09:44:32;5.15;;;4.22;;
21806;SDS011;11065;50.786;7.840;2023-07-22T09:47:07;6.00;;;3.72;;
21806;SDS011;11065;50.786;7.840;2023-07-22T09:49:39;4.43;;;3.70;;
21806;SDS011;11065;50.786;7.840;2023-07-22T09:52:09;4.70;;;3.72;;
21806;SDS011;11065;50.786;7.840;2023-07-22T09:54:46;5.22;;;3.25;;
21806;SDS011;11065;50.786;7.840;2023-07-22T09:57:17;7.15;;;3.35;;
21806;SDS011;11065;50.786;7.840;2023-07-22T09:59:46;4.57;;;3.25;;
21806;SDS011;11065;50.786;7.840;2023-07-22T10:02:18;3.83;;;3.00;;
21806;SDS011;11065;50.786;7.840;2023-07-22T10:04:49;4.18;;;3.20;;
21806;SDS011;11065;50.786;7.840;2023-07-22T10:07:20;3.72;;;2.78;;
21806;SDS011;11065;50.786;7.840;2023-07-22T10:09:49;4.05;;;2.90;;
21806;SDS011;11065;50.786;7.840;2023-07-22T10:12:22;3.28;;;2.17;;
21806;SDS011;11065;50.786;7.840;2023-07-22T10:14:52;4.18;;;2.55;;
21806;SDS011;11065;50.786;7.840;2023-07-22T10:17:22;3.60;;;2.60;;
21806;SDS011;11065;50.786;7.840;2023-07-22T10:19:51;3.30;;;2.53;;
21806;SDS011;11065;50.786;7.840;2023-07-22T10:22:21;4.50;;;2.47;;
21806;SDS011;11065;50.786;7.840;2023-07-22T10:24:49;3.40;;;2.55;;
21806;SDS011;11065;50.786;7.840;2023-07-22T10:27:23;4.32;;;2.72;;
21806;SDS011;11065;50.786;7.840;2023-07-22T10:29:51;3.15;;;2.60;;
21806;SDS011;11065;50.786;7.840;2023-07-22T10:32:23;3.13;;;2.42;;
21806;SDS011;11065;50.786;7.840;2023-07-22T10:34:52;3.00;;;2.30;;
21806;SDS011;11065;50.786;7.840;2023-07-22T10:37:20;3.20;;;2.53;;
21806;SDS011;11065;50.786;7.840;2023-07-22T10:39:58;3.08;;;2.35;;
21806;SDS011;11065;50.786;7.840;2023-07-22T10:42:27;2.88;;;1.98;;
21806;SDS011;11065;50.786;7.840;2023-07-22T10:44:59;3.58;;;2.47;;
21806;SDS011;11065;50.786;7.840;2023-07-22T10:47:34;3.25;;;2.40;;
21806;SDS011;11065;50.786;7.840;2023-07-22T10:50:07;3.20;;;2.35;;
21806;SDS011;11065;50.786;7.840;2023-07-22T10:52:40;3.35;;;2.35;;
21806;SDS011;11065;50.786;7.840;2023-07-22T10:55:14;3.28;;;2.30;;
21806;SDS011;11065;50.786;7.840;2023-07-22T10:57:50;2.65;;;2.17;;
21806;SDS011;11065;50.786;7.840;2023-07-22T11:00:22;3.78;;;2.70;;
21806;SDS011;11065;50.786;7.840;2023-07-22T11:03:10;3.65;;;2.20;;
21806;SDS011;11065;50.786;7.840;2023-07-22T11:05:49;3.28;;;2.53;;
21806;SDS011;11065;50.786;7.840;2023-07-22T11:11:03;3.92;;;2.78;;
21806;SDS011;11065;50.786;7.840;2023-07-22T11:13:34;3.53;;;2.58;;
21806;SDS011;11065;50.786;7.840;2023-07-22T11:16:09;4.70;;;2.92;;
21806;SDS011;11065;50.786;7.840;2023-07-22T11:18:40;4.95;;;2.60;;
21806;SDS011;11065;50.786;7.840;2023-07-22T11:21:09;3.60;;;2.63;;
21806;SDS011;11065;50.786;7.840;2023-07-22T11:23:38;3.67;;;2.75;;
21806;SDS011;11065;50.786;7.840;2023-07-22T11:26:06;3.35;;;2.40;;
21806;SDS011;11065;50.786;7.840;2023-07-22T11:28:35;3.78;;;2.80;;
21806;SDS011;11065;50.786;7.840;2023-07-22T11:31:05;3.55;;;2.78;;
21806;SDS011;11065;50.786;7.840;2023-07-22T11:33:41;4.55;;;2.45;;
21806;SDS011;11065;50.786;7.840;2023-07-22T11:36:12;3.00;;;2.58;;
21806;SDS011;11065;50.786;7.840;2023-07-22T11:38:41;3.65;;;2.70;;
21806;SDS011;11065;50.786;7.840;2023-07-22T11:41:09;3.00;;;2.40;;
21806;SDS011;11065;50.786;7.840;2023-07-22T11:43:38;5.00;;;2.80;;
21806;SDS011;11065;50.786;7.840;2023-07-22T11:46:06;4.22;;;2.38;;
21806;SDS011;11065;50.786;7.840;2023-07-22T11:48:35;4.75;;;2.60;;
21806;SDS011;11065;50.786;7.840;2023-07-22T11:51:04;3.60;;;2.70;;
21806;SDS011;11065;50.786;7.840;2023-07-22T11:53:34;3.58;;;2.50;;
21806;SDS011;11065;50.786;7.840;2023-07-22T11:56:03;3.45;;;2.40;;
21806;SDS011;11065;50.786;7.840;2023-07-22T11:58:32;2.83;;;2.40;;
21806;SDS011;11065;50.786;7.840;2023-07-22T12:01:02;2.78;;;2.28;;
21806;SDS011;11065;50.786;7.840;2023-07-22T12:03:32;4.00;;;2.60;;
21806;SDS011;11065;50.786;7.840;2023-07-22T12:06:01;4.63;;;2.38;;
21806;SDS011;11065;50.786;7.840;2023-07-22T12:08:31;3.35;;;2.42;;
21806;SDS011;11065;50.786;7.840;2023-07-22T12:11:00;2.33;;;1.58;;
21806;SDS011;11065;50.786;7.840;2023-07-22T12:13:35;4.03;;;2.33;;
21806;SDS011;11065;50.786;7.840;2023-07-22T12:16:04;3.75;;;2.13;;
21806;SDS011;11065;50.786;7.840;2023-07-22T12:18:43;3.00;;;2.10;;
21806;SDS011;11065;50.786;7.840;2023-07-22T12:21:12;4.18;;;2.20;;
21806;SDS011;11065;50.786;7.840;2023-07-22T12:23:42;3.22;;;2.22;;
21806;SDS011;11065;50.786;7.840;2023-07-22T12:26:11;2.97;;;1.80;;
21806;SDS011;11065;50.786;7.840;2023-07-22T12:28:39;2.72;;;1.83;;
21806;SDS011;11065;50.786;7.840;2023-07-22T12:31:07;9.65;;;2.50;;
21806;SDS011;11065;50.786;7.840;2023-07-22T12:33:37;2.72;;;2.13;;
21806;SDS011;11065;50.786;7.840;2023-07-22T12:36:05;2.80;;;2.13;;
21806;SDS011;11065;50.786;7.840;2023-07-22T12:38:33;3.45;;;2.55;;
21806;SDS011;11065;50.786;7.840;2023-07-22T12:41:04;3.03;;;1.95;;
21806;SDS011;11065;50.786;7.840;2023-07-22T12:43:32;2.08;;;1.75;;
21806;SDS011;11065;50.786;7.840;2023-07-22T12:46:00;2.90;;;1.88;;
21806;SDS011;11065;50.786;7.840;2023-07-22T12:48:28;3.22;;;2.20;;
21806;SDS011;11065;50.786;7.840;2023-07-22T12:50:57;2.25;;;1.80;;
21806;SDS011;11065;50.786;7.840;2023-07-22T12:53:25;3.15;;;1.98;;
21806;SDS011;11065;50.786;7.840;2023-07-22T12:55:57;2.92;;;1.92;;
21806;SDS011;11065;50.786;7.840;2023-07-22T12:58:27;2.53;;;1.80;;
21806;SDS011;11065;50.786;7.840;2023-07-22T13:00:55;2.45;;;1.65;;
21806;SDS011;11065;50.786;7.840;2023-07-22T13:03:24;2.33;;;1.60;;
21806;SDS011;11065;50.786;7.840;2023-07-22T13:05:52;2.92;;;1.75;;
21806;SDS011;11065;50.786;7.840;2023-07-22T13:08:20;2.60;;;1.80;;
21806;SDS011;11065;50.786;7.840;2023-07-22T13:10:49;2.45;;;1.83;;
21806;SDS011;11065;50.786;7.840;2023-07-22T13:13:17;3.35;;;2.15;;
21806;SDS011;11065;50.786;7.840;2023-07-22T13:15:47;2.60;;;1.85;;
21806;SDS011;11065;50.786;7.840;2023-07-22T13:18:15;5.40;;;1.80;;
21806;SDS011;11065;50.786;7.840;2023-07-22T13:20:45;5.97;;;2.08;;
21806;SDS011;11065;50.786;7.840;2023-07-22T13:23:13;2.50;;;1.80;;
21806;SDS011;11065;50.786;7.840;2023-07-22T13:25:41;3.65;;;1.85;;
21806;SDS011;11065;50.786;7.840;2023-07-22T13:28:10;2.40;;;1.75;;
21806;SDS011;11065;50.786;7.840;2023-07-22T13:30:38;3.85;;;1.95;;
21806;SDS011;11065;50.786;7.840;2023-07-22T13:33:09;2.78;;;1.80;;
21806;SDS011;11065;50.786;7.840;2023-07-22T13:35:37;3.13;;;2.38;;
21806;SDS011;11065;50.786;7.840;2023-07-22T13:38:06;4.40;;;2.25;;
21806;SDS011;11065;50.786;7.840;2023-07-22T13:40:34;2.90;;;2.15;;
21806;SDS011;11065;50.786;7.840;2023-07-22T13:43:02;2.95;;;2.40;;
21806;SDS011;11065;50.786;7.840;2023-07-22T13:45:32;2.92;;;1.98;;
21806;SDS011;11065;50.786;7.840;2023-07-22T13:48:01;3.13;;;2.17;;
21806;SDS011;11065;50.786;7.840;2023-07-22T13:50:30;2.83;;;2.10;;
21806;SDS011;11065;50.786;7.840;2023-07-22T13:53:02;3.00;;;2.10;;
21806;SDS011;11065;50.786;7.840;2023-07-22T13:55:30;3.53;;;2.20;;
21806;SDS011;11065;50.786;7.840;2023-07-22T13:58:00;4.53;;;2.20;;
21806;SDS011;11065;50.786;7.840;2023-07-22T14:00:28;2.58;;;2.10;;
21806;SDS011;11065;50.786;7.840;2023-07-22T14:02:56;3.38;;;2.42;;
21806;SDS011;11065;50.786;7.840;2023-07-22T14:05:25;3.08;;;2.05;;
21806;SDS011;11065;50.786;7.840;2023-07-22T14:07:55;3.38;;;2.55;;
21806;SDS011;11065;50.786;7.840;2023-07-22T14:10:23;3.10;;;2.40;;
21806;SDS011;11065;50.786;7.840;2023-07-22T14:12:52;3.55;;;2.75;;
21806;SDS011;11065;50.786;7.840;2023-07-22T14:15:21;3.70;;;2.50;;
21806;SDS011;11065;50.786;7.840;2023-07-22T14:17:49;3.00;;;2.28;;
21806;SDS011;11065;50.786;7.840;2023-07-22T14:20:18;3.50;;;2.55;;
21806;SDS011;11065;50.786;7.840;2023-07-22T14:22:47;3.72;;;2.45;;
21806;SDS011;11065;50.786;7.840;2023-07-22T14:25:18;3.22;;;2.40;;
21806;SDS011;11065;50.786;7.840;2023-07-22T14:27:46;3.20;;;2.05;;
21806;SDS011;11065;50.786;7.840;2023-07-22T14:30:14;2.97;;;2.08;;
21806;SDS011;11065;50.786;7.840;2023-07-22T14:32:43;3.88;;;2.60;;
21806;SDS011;11065;50.786;7.840;2023-07-22T14:35:11;4.32;;;2.60;;
21806;SDS011;11065;50.786;7.840;2023-07-22T14:37:40;3.50;;;2.30;;
21806;SDS011;11065;50.786;7.840;2023-07-22T14:40:08;3.75;;;2.05;;
21806;SDS011;11065;50.786;7.840;2023-07-22T14:42:38;3.42;;;2.47;;
21806;SDS011;11065;50.786;7.840;2023-07-22T14:45:07;3.38;;;2.08;;
21806;SDS011;11065;50.786;7.840;2023-07-22T14:47:36;4.47;;;2.42;;
21806;SDS011;11065;50.786;7.840;2023-07-22T14:50:06;3.60;;;2.38;;
21806;SDS011;11065;50.786;7.840;2023-07-22T14:52:34;3.08;;;2.40;;
21806;SDS011;11065;50.786;7.840;2023-07-22T14:55:03;2.97;;;2.08;;
21806;SDS011;11065;50.786;7.840;2023-07-22T14:57:32;3.33;;;2.25;;
21806;SDS011;11065;50.786;7.840;2023-07-22T15:00:02;3.05;;;2.28;;
21806;SDS011;11065;50.786;7.840;2023-07-22T15:02:31;4.82;;;2.17;;
21806;SDS011;11065;50.786;7.840;2023-07-22T15:04:59;4.28;;;2.40;;